Maribel — LAGU6 — position and weather

sailwx.info

Track history (hours):
 
Tides and Currents Weather Stations Pressure Air Temp Water Temp Dewpoint Dewpoint Depression Visibility Wind Speed Wind Dir Waves Ship Positions

Maribel

Last reported at 2015-Jul-08 03:20 UTC. Time now 2015-Jul-08 04:22 UTC.
Position N 27°34' W 015°17'.

Length 227 m; draft 13.5 m.

Type: Tanker. MMSI: 257872000.

Date/timePositionNaut miles runAvg speedWind from/ knotsBaromVisibWave heightAir tempDewpointWater temp
2015-Jul-08 03:20N 27°34' W 015°17'1012.5
2015-Jul-08 02:33N 27°43' W 015°12'1212.0
2015-Jul-08 01:33N 27°54' W 015°07'1211.8
2015-Jul-08 00:33N 28°05' W 015°02'1211.7
2015-Jul-07 23:33N 28°16' W 014°57'1212.1
2015-Jul-07 22:33N 28°27' W 014°53'1212.0
2015-Jul-07 21:34N 28°39' W 014°50'1212.0
2015-Jul-07 20:33N 28°51' W 014°47'1211.8
2015-Jul-07 19:34N 29°02' W 014°44'1211.7
2015-Jul-07 18:34N 29°14' W 014°41'1211.5
2015-Jul-07 17:34N 29°25' W 014°38'1211.6
2015-Jul-07 16:33N 29°36' W 014°35'1311.8
2015-Jul-07 15:26N 29°49' W 014°31'1411.8
2015-Jul-07 14:16N 30°02' W 014°27'911.7
2015-Jul-07 13:31N 30°11' W 014°25'2811.7
2015-Jul-07 11:07N 30°38' W 014°17'1211.7
2015-Jul-07 10:06N 30°50' W 014°14'1111.3
2015-Jul-07 09:09N 31°00' W 014°11'711.3
2015-Jul-07 08:33N 31°07' W 014°09'1211.4
2015-Jul-07 07:28N 31°19' W 014°06'1011.3
2015-Jul-07 06:33N 31°29' W 014°03'1111.4
2015-Jul-07 05:33N 31°40' W 014°00'1211.6
2015-Jul-07 04:33N 31°51' W 013°57'1211.7
2015-Jul-07 03:33N 32°03' W 013°54'1311.7
2015-Jul-07 02:25N 32°16' W 013°50'1011.7
2015-Jul-07 01:33N 32°25' W 013°47'1211.9
2015-Jul-07 00:33N 32°37' W 013°44'1212.1
2015-Jul-06 23:33N 32°49' W 013°41'1211.9
2015-Jul-06 22:33N 33°00' W 013°38'1211.7
2015-Jul-06 21:33N 33°12' W 013°34'1211.9
2015-Jul-06 20:33N 33°23' W 013°31'1212.3
2015-Jul-06 19:33N 33°35' W 013°28'1212.3
2015-Jul-06 18:34N 33°47' W 013°24'1212.0
2015-Jul-06 17:33N 33°59' W 013°21'1211.8
2015-Jul-06 16:34N 34°10' W 013°18'1211.6
2015-Jul-06 15:33N 34°22' W 013°14'1211.6
2015-Jul-06 14:34N 34°33' W 013°11'1211.6
2015-Jul-06 13:33N 34°44' W 013°08'1111.5
2015-Jul-06 12:34N 34°55' W 013°05'1211.7
2015-Jul-06 11:33N 35°07' W 013°01'1211.7
2015-Jul-06 10:33N 35°18' W 012°58'1211.5
2015-Jul-06 09:33N 35°29' W 012°55'1111.5
2015-Jul-06 08:33N 35°40' W 012°51'1211.4
2015-Jul-06 07:32N 35°52' W 012°48'1111.3
2015-Jul-06 06:33N 36°03' W 012°45'1211.5
2015-Jul-06 05:32N 36°14' W 012°42'1111.5
2015-Jul-06 04:33N 36°25' W 012°38'1511.7
2015-Jul-06 03:17N 36°39' W 012°34'1111.9
2015-Jul-06 02:23N 36°50' W 012°31'1012.1
2015-Jul-06 01:33N 36°60' W 012°28'1512.1
2015-Jul-06 00:21N 37°14' W 012°24'1012.4
2015-Jul-05 23:33N 37°23' W 012°21'1212.4
2015-Jul-05 22:32N 37°36' W 012°18'1212.5
2015-Jul-05 21:33N 37°47' W 012°14'1212.3
2015-Jul-05 20:33N 37°59' W 012°10'1211.7
2015-Jul-05 19:33N 38°11' W 012°07'1111.2
2015-Jul-05 18:33N 38°22' W 012°03'1111.2
2015-Jul-05 17:33N 38°33' W 011°60'1111.5
2015-Jul-05 16:33N 38°44' W 011°57'1211.7
2015-Jul-05 15:32N 38°55' W 011°53'1211.6
2015-Jul-05 14:30N 39°07' W 011°49'1211.8
2015-Jul-05 13:31N 39°18' W 011°46'  
2015-Jul-03 06:27N 48°42' W 005°58'4010.2
2015-Jul-03 02:33N 49°08' W 005°12'1111.4
2015-Jul-03 01:33N 49°14' W 004°57'1212.5
2015-Jul-03 00:33N 49°20' W 004°41'1413.3
2015-Jul-02 23:32N 49°27' W 004°23'4911.8
2015-Jul-02 19:25N 49°52' W 003°18'2210.2
2015-Jul-02 17:17N 50°01' W 002°47'11012.6
2015-Jul-02 08:32N 50°30' W 000°01'11 9.8
2015-Jul-02 07:23N 50°33' E 000°16'911.0
2015-Jul-02 06:33N 50°35' E 000°30'1212.2
2015-Jul-02 05:34N 50°42' E 000°46'2912.0
2015-Jul-02 03:09N 51°01' E 001°21'610.5
2015-Jul-02 02:34N 51°05' E 001°28'9 9.1
2015-Jul-02 01:34N 51°11' E 001°39'6 5.6
2015-Jul-02 00:34N 51°15' E 001°46'9 9.0
2015-Jul-01 23:33N 51°23' E 001°53'1110.5
2015-Jul-01 22:33N 51°31' E 002°03'6111.9
2015-Jul-01 17:23N 52°03' E 003°27'911.3
2015-Jul-01 16:33N 52°03' E 003°43'10 9.6
2015-Jul-01 15:33N 52°02' E 003°58'9 9.0
2015-Jul-01 14:34N 51°57' E 004°10'2 1.6
2015-Jul-01 13:32N 51°56' E 004°12'0 0.0
2015-Jul-01 12:31N 51°56' E 004°12'0 0.0
2015-Jul-01 11:31N 51°56' E 004°12'0 0.0
2015-Jul-01 10:33N 51°56' E 004°12'0 0.0
2015-Jul-01 09:33N 51°56' E 004°12'0 0.0
2015-Jul-01 08:30N 51°56' E 004°12'0 0.0
2015-Jul-01 07:32N 51°56' E 004°12'0 0.0
2015-Jul-01 06:20N 51°56' E 004°12'1 1.2
2015-Jul-01 05:34N 51°56' E 004°11'7 7.4
2015-Jul-01 04:33N 51°60' E 004°01'8 7.8
2015-Jul-01 03:33N 51°56' E 004°12'6 5.9
2015-Jul-01 02:33N 51°54' E 004°21'1 0.6
2015-Jul-01 01:34N 51°54' E 004°22'0 0.0
2015-Jul-01 00:33N 51°54' E 004°22'0 0.0
2015-Jun-30 23:32N 51°54' E 004°22'0 0.0
2015-Jun-30 22:32N 51°54' E 004°22'0 0.0
2015-Jun-30 21:31N 51°54' E 004°22'0 0.0
2015-Jun-30 20:31N 51°54' E 004°22'0 0.0
2015-Jun-30 19:31N 51°54' E 004°22'0 0.0
2015-Jun-30 18:33N 51°54' E 004°22'0 0.0
2015-Jun-30 17:32N 51°54' E 004°22'0 0.0
2015-Jun-30 16:32N 51°54' E 004°22'0 0.0
2015-Jun-30 15:31N 51°54' E 004°22'0 0.0
2015-Jun-30 14:31N 51°54' E 004°22'0 0.0
2015-Jun-30 13:33N 51°54' E 004°22'0 0.0
2015-Jun-30 12:33N 51°54' E 004°22'0 0.0
2015-Jun-30 11:33N 51°54' E 004°22'0 0.0
2015-Jun-30 10:32N 51°54' E 004°22'0 0.0
2015-Jun-30 09:32N 51°54' E 004°22'0 0.0
2015-Jun-30 08:31N 51°54' E 004°22'0 0.0
2015-Jun-30 07:31N 51°54' E 004°22'0 0.0
2015-Jun-30 06:33N 51°54' E 004°22'0 0.0
2015-Jun-30 05:33N 51°54' E 004°22'0 0.0
2015-Jun-30 04:33N 51°54' E 004°22'0 0.0
2015-Jun-30 03:32N 51°54' E 004°22'0 0.0
2015-Jun-30 02:32N 51°54' E 004°22'0 0.0
2015-Jun-30 01:31N 51°54' E 004°22'0 0.0
2015-Jun-30 00:31N 51°54' E 004°22'0 0.0
2015-Jun-29 23:33N 51°54' E 004°22'0 0.0
2015-Jun-29 22:33N 51°54' E 004°22'0 0.0
2015-Jun-29 21:33N 51°54' E 004°22'0 0.0
2015-Jun-29 20:32N 51°54' E 004°22'0 0.0
2015-Jun-29 19:32N 51°54' E 004°22'0 0.0
2015-Jun-29 18:31N 51°54' E 004°22'0 0.0
2015-Jun-29 17:31N 51°54' E 004°22'0 0.0
2015-Jun-29 16:33N 51°54' E 004°22'0 0.0
2015-Jun-29 15:33N 51°54' E 004°22'0 0.0
2015-Jun-29 14:32N 51°54' E 004°22'0 0.0
2015-Jun-29 13:32N 51°54' E 004°22'0 0.0
2015-Jun-29 12:26N 51°54' E 004°22'0 0.0
2015-Jun-29 11:31N 51°54' E 004°22'0 0.0
2015-Jun-29 10:31N 51°54' E 004°22'0 0.0
2015-Jun-29 09:33N 51°54' E 004°22'0 0.0
2015-Jun-29 08:33N 51°54' E 004°22'0 0.0
2015-Jun-29 07:32N 51°54' E 004°22'0 0.0
2015-Jun-29 06:32N 51°54' E 004°22'0 0.0
2015-Jun-29 05:32N 51°54' E 004°22'0 0.0
2015-Jun-29 04:31N 51°54' E 004°22'0 0.0
2015-Jun-29 03:28N 51°54' E 004°22'0 0.0
2015-Jun-29 02:33N 51°54' E 004°22'0 0.0
2015-Jun-29 01:33N 51°54' E 004°22'0 0.0
2015-Jun-29 00:32N 51°54' E 004°22'0 0.0
2015-Jun-28 23:32N 51°54' E 004°22'0 0.0
2015-Jun-28 22:32N 51°54' E 004°22'0 0.0
2015-Jun-28 21:31N 51°54' E 004°22'2 2.2
2015-Jun-28 20:33N 51°54' E 004°18'9 9.1
2015-Jun-28 19:33N 51°59' E 004°06'10 9.7
2015-Jun-28 18:33N 51°59' E 003°50'6 4.6
2015-Jun-28 17:21N 51°56' E 003°42'0 0.1
2015-Jun-28 16:30N 51°56' E 003°43'0 0.1
2015-Jun-28 15:33N 51°56' E 003°43'0 0.1
2015-Jun-28 14:32N 51°57' E 003°43'0 0.0
2015-Jun-28 13:32N 51°57' E 003°43'0 0.0
2015-Jun-28 12:28N 51°57' E 003°43'0 0.0
2015-Jun-28 11:31N 51°57' E 003°43'0 0.0
2015-Jun-28 10:34N 51°57' E 003°43'0 0.0
2015-Jun-28 09:33N 51°57' E 003°43'0 0.0
2015-Jun-28 08:33N 51°57' E 003°43'0 0.1
2015-Jun-28 07:32N 51°57' E 003°42'0 0.1
2015-Jun-28 06:32N 51°56' E 003°42'0 0.0
2015-Jun-28 05:25N 51°56' E 003°42'0 0.2
2015-Jun-28 04:31N 51°57' E 003°43'0 0.1
2015-Jun-28 03:33N 51°57' E 003°43'  
Track history (hours):
 
Tides and Currents Weather Stations Pressure Air Temp Water Temp Dewpoint Dewpoint Depression Visibility Wind Speed Wind Dir Waves Ship Positions

Maribel

Last reported at 2015-Jul-08 03:20 UTC. Time now 2015-Jul-08 04:22 UTC.
Position N 27°34' W 015°17'.

Length 227 m; draft 13.5 m.

Type: Tanker. MMSI: 257872000.

Date/timePositionNaut miles runAvg speedWind from/ knotsBaromVisibWave heightAir tempDewpointWater temp
2015-Jul-08 03:20N 27°34' W 015°17'1012.5
2015-Jul-08 02:33N 27°43' W 015°12'1212.0
2015-Jul-08 01:33N 27°54' W 015°07'1211.8
2015-Jul-08 00:33N 28°05' W 015°02'1211.7
2015-Jul-07 23:33N 28°16' W 014°57'1212.1
2015-Jul-07 22:33N 28°27' W 014°53'1212.0
2015-Jul-07 21:34N 28°39' W 014°50'1212.0
2015-Jul-07 20:33N 28°51' W 014°47'1211.8
2015-Jul-07 19:34N 29°02' W 014°44'1211.7
2015-Jul-07 18:34N 29°14' W 014°41'1211.5
2015-Jul-07 17:34N 29°25' W 014°38'1211.6
2015-Jul-07 16:33N 29°36' W 014°35'1311.8
2015-Jul-07 15:26N 29°49' W 014°31'1411.8
2015-Jul-07 14:16N 30°02' W 014°27'911.7
2015-Jul-07 13:31N 30°11' W 014°25'2811.7
2015-Jul-07 11:07N 30°38' W 014°17'1211.7
2015-Jul-07 10:06N 30°50' W 014°14'1111.3
2015-Jul-07 09:09N 31°00' W 014°11'711.3
2015-Jul-07 08:33N 31°07' W 014°09'1211.4
2015-Jul-07 07:28N 31°19' W 014°06'1011.3
2015-Jul-07 06:33N 31°29' W 014°03'1111.4
2015-Jul-07 05:33N 31°40' W 014°00'1211.6
2015-Jul-07 04:33N 31°51' W 013°57'1211.7
2015-Jul-07 03:33N 32°03' W 013°54'1311.7
2015-Jul-07 02:25N 32°16' W 013°50'1011.7
2015-Jul-07 01:33N 32°25' W 013°47'1211.9
2015-Jul-07 00:33N 32°37' W 013°44'1212.1
2015-Jul-06 23:33N 32°49' W 013°41'1211.9
2015-Jul-06 22:33N 33°00' W 013°38'1211.7
2015-Jul-06 21:33N 33°12' W 013°34'1211.9
2015-Jul-06 20:33N 33°23' W 013°31'1212.3
2015-Jul-06 19:33N 33°35' W 013°28'1212.3
2015-Jul-06 18:34N 33°47' W 013°24'1212.0
2015-Jul-06 17:33N 33°59' W 013°21'1211.8
2015-Jul-06 16:34N 34°10' W 013°18'1211.6
2015-Jul-06 15:33N 34°22' W 013°14'1211.6
2015-Jul-06 14:34N 34°33' W 013°11'1211.6
2015-Jul-06 13:33N 34°44' W 013°08'1111.5
2015-Jul-06 12:34N 34°55' W 013°05'1211.7
2015-Jul-06 11:33N 35°07' W 013°01'1211.7
2015-Jul-06 10:33N 35°18' W 012°58'1211.5
2015-Jul-06 09:33N 35°29' W 012°55'1111.5
2015-Jul-06 08:33N 35°40' W 012°51'1211.4
2015-Jul-06 07:32N 35°52' W 012°48'1111.3
2015-Jul-06 06:33N 36°03' W 012°45'1211.5
2015-Jul-06 05:32N 36°14' W 012°42'1111.5
2015-Jul-06 04:33N 36°25' W 012°38'1511.7
2015-Jul-06 03:17N 36°39' W 012°34'1111.9
2015-Jul-06 02:23N 36°50' W 012°31'1012.1
2015-Jul-06 01:33N 36°60' W 012°28'1512.1
2015-Jul-06 00:21N 37°14' W 012°24'1012.4
2015-Jul-05 23:33N 37°23' W 012°21'1212.4
2015-Jul-05 22:32N 37°36' W 012°18'1212.5
2015-Jul-05 21:33N 37°47' W 012°14'1212.3
2015-Jul-05 20:33N 37°59' W 012°10'1211.7
2015-Jul-05 19:33N 38°11' W 012°07'1111.2
2015-Jul-05 18:33N 38°22' W 012°03'1111.2
2015-Jul-05 17:33N 38°33' W 011°60'1111.5
2015-Jul-05 16:33N 38°44' W 011°57'1211.7
2015-Jul-05 15:32N 38°55' W 011°53'1211.6
2015-Jul-05 14:30N 39°07' W 011°49'1211.8
2015-Jul-05 13:31N 39°18' W 011°46'  
2015-Jul-03 06:27N 48°42' W 005°58'4010.2
2015-Jul-03 02:33N 49°08' W 005°12'1111.4
2015-Jul-03 01:33N 49°14' W 004°57'1212.5
2015-Jul-03 00:33N 49°20' W 004°41'1413.3
2015-Jul-02 23:32N 49°27' W 004°23'4911.8
2015-Jul-02 19:25N 49°52' W 003°18'2210.2
2015-Jul-02 17:17N 50°01' W 002°47'11012.6
2015-Jul-02 08:32N 50°30' W 000°01'11 9.8
2015-Jul-02 07:23N 50°33' E 000°16'911.0
2015-Jul-02 06:33N 50°35' E 000°30'1212.2
2015-Jul-02 05:34N 50°42' E 000°46'2912.0
2015-Jul-02 03:09N 51°01' E 001°21'610.5
2015-Jul-02 02:34N 51°05' E 001°28'9 9.1
2015-Jul-02 01:34N 51°11' E 001°39'6 5.6
2015-Jul-02 00:34N 51°15' E 001°46'9 9.0
2015-Jul-01 23:33N 51°23' E 001°53'1110.5
2015-Jul-01 22:33N 51°31' E 002°03'6111.9
2015-Jul-01 17:23N 52°03' E 003°27'911.3
2015-Jul-01 16:33N 52°03' E 003°43'10 9.6
2015-Jul-01 15:33N 52°02' E 003°58'9 9.0
2015-Jul-01 14:34N 51°57' E 004°10'2 1.6
2015-Jul-01 13:32N 51°56' E 004°12'0 0.0
2015-Jul-01 12:31N 51°56' E 004°12'0 0.0
2015-Jul-01 11:31N 51°56' E 004°12'0 0.0
2015-Jul-01 10:33N 51°56' E 004°12'0 0.0
2015-Jul-01 09:33N 51°56' E 004°12'0 0.0
2015-Jul-01 08:30N 51°56' E 004°12'0 0.0
2015-Jul-01 07:32N 51°56' E 004°12'0 0.0
2015-Jul-01 06:20N 51°56' E 004°12'1 1.2
2015-Jul-01 05:34N 51°56' E 004°11'7 7.4
2015-Jul-01 04:33N 51°60' E 004°01'8 7.8
2015-Jul-01 03:33N 51°56' E 004°12'6 5.9
2015-Jul-01 02:33N 51°54' E 004°21'1 0.6
2015-Jul-01 01:34N 51°54' E 004°22'0 0.0
2015-Jul-01 00:33N 51°54' E 004°22'0 0.0
2015-Jun-30 23:32N 51°54' E 004°22'0 0.0
2015-Jun-30 22:32N 51°54' E 004°22'0 0.0
2015-Jun-30 21:31N 51°54' E 004°22'0 0.0
2015-Jun-30 20:31N 51°54' E 004°22'0 0.0
2015-Jun-30 19:31N 51°54' E 004°22'0 0.0
2015-Jun-30 18:33N 51°54' E 004°22'0 0.0
2015-Jun-30 17:32N 51°54' E 004°22'0 0.0
2015-Jun-30 16:32N 51°54' E 004°22'0 0.0
2015-Jun-30 15:31N 51°54' E 004°22'0 0.0
2015-Jun-30 14:31N 51°54' E 004°22'0 0.0
2015-Jun-30 13:33N 51°54' E 004°22'0 0.0
2015-Jun-30 12:33N 51°54' E 004°22'0 0.0
2015-Jun-30 11:33N 51°54' E 004°22'0 0.0
2015-Jun-30 10:32N 51°54' E 004°22'0 0.0
2015-Jun-30 09:32N 51°54' E 004°22'0 0.0
2015-Jun-30 08:31N 51°54' E 004°22'0 0.0
2015-Jun-30 07:31N 51°54' E 004°22'0 0.0
2015-Jun-30 06:33N 51°54' E 004°22'0 0.0
2015-Jun-30 05:33N 51°54' E 004°22'0 0.0
2015-Jun-30 04:33N 51°54' E 004°22'0 0.0
2015-Jun-30 03:32N 51°54' E 004°22'0 0.0
2015-Jun-30 02:32N 51°54' E 004°22'0 0.0
2015-Jun-30 01:31N 51°54' E 004°22'0 0.0
2015-Jun-30 00:31N 51°54' E 004°22'0 0.0
2015-Jun-29 23:33N 51°54' E 004°22'0 0.0
2015-Jun-29 22:33N 51°54' E 004°22'0 0.0
2015-Jun-29 21:33N 51°54' E 004°22'0 0.0
2015-Jun-29 20:32N 51°54' E 004°22'0 0.0
2015-Jun-29 19:32N 51°54' E 004°22'0 0.0
2015-Jun-29 18:31N 51°54' E 004°22'0 0.0
2015-Jun-29 17:31N 51°54' E 004°22'0 0.0
2015-Jun-29 16:33N 51°54' E 004°22'0 0.0
2015-Jun-29 15:33N 51°54' E 004°22'0 0.0
2015-Jun-29 14:32N 51°54' E 004°22'0 0.0
2015-Jun-29 13:32N 51°54' E 004°22'0 0.0
2015-Jun-29 12:26N 51°54' E 004°22'0 0.0
2015-Jun-29 11:31N 51°54' E 004°22'0 0.0
2015-Jun-29 10:31N 51°54' E 004°22'0 0.0
2015-Jun-29 09:33N 51°54' E 004°22'0 0.0
2015-Jun-29 08:33N 51°54' E 004°22'0 0.0
2015-Jun-29 07:32N 51°54' E 004°22'0 0.0
2015-Jun-29 06:32N 51°54' E 004°22'0 0.0
2015-Jun-29 05:32N 51°54' E 004°22'0 0.0
2015-Jun-29 04:31N 51°54' E 004°22'0 0.0
2015-Jun-29 03:28N 51°54' E 004°22'0 0.0
2015-Jun-29 02:33N 51°54' E 004°22'0 0.0
2015-Jun-29 01:33N 51°54' E 004°22'0 0.0
2015-Jun-29 00:32N 51°54' E 004°22'0 0.0
2015-Jun-28 23:32N 51°54' E 004°22'0 0.0
2015-Jun-28 22:32N 51°54' E 004°22'0 0.0
2015-Jun-28 21:31N 51°54' E 004°22'2 2.2
2015-Jun-28 20:33N 51°54' E 004°18'9 9.1
2015-Jun-28 19:33N 51°59' E 004°06'10 9.7
2015-Jun-28 18:33N 51°59' E 003°50'6 4.6
2015-Jun-28 17:21N 51°56' E 003°42'0 0.1
2015-Jun-28 16:30N 51°56' E 003°43'0 0.1
2015-Jun-28 15:33N 51°56' E 003°43'0 0.1
2015-Jun-28 14:32N 51°57' E 003°43'0 0.0
2015-Jun-28 13:32N 51°57' E 003°43'0 0.0
2015-Jun-28 12:28N 51°57' E 003°43'0 0.0
2015-Jun-28 11:31N 51°57' E 003°43'0 0.0
2015-Jun-28 10:34N 51°57' E 003°43'0 0.0
2015-Jun-28 09:33N 51°57' E 003°43'0 0.0
2015-Jun-28 08:33N 51°57' E 003°43'0 0.1
2015-Jun-28 07:32N 51°57' E 003°42'0 0.1
2015-Jun-28 06:32N 51°56' E 003°42'0 0.0
2015-Jun-28 05:25N 51°56' E 003°42'0 0.2
2015-Jun-28 04:31N 51°57' E 003°43'0 0.1
2015-Jun-28 03:33N 51°57' E 003°43'  

Dump ship's entire track history